createdAt,value
2023-02-11T00:01:29.624Z,6.30
2023-02-11T00:04:01.730Z,6.10
2023-02-11T00:06:34.714Z,6.30
2023-02-11T00:09:06.817Z,6.50
2023-02-11T00:11:37.790Z,6.20
2023-02-11T00:14:11.025Z,6.50
2023-02-11T00:16:41.974Z,6.50
2023-02-11T00:19:12.852Z,6.50
2023-02-11T00:21:43.722Z,6.40
2023-02-11T00:24:14.611Z,6.30
2023-02-11T00:26:45.491Z,6.40
2023-02-11T00:29:16.455Z,6.10
2023-02-11T00:31:47.595Z,6.40
2023-02-11T00:34:18.644Z,6.40
2023-02-11T00:36:49.510Z,6.10
2023-02-11T00:39:20.394Z,6.30
2023-02-11T00:41:51.795Z,6.10
2023-02-11T00:44:22.700Z,6.30
2023-02-11T00:46:53.640Z,6.50
2023-02-11T00:49:25.313Z,6.30
2023-02-11T00:51:56.209Z,6.00
2023-02-11T00:54:29.871Z,6.10
2023-02-11T00:57:00.954Z,6.10
2023-02-11T00:59:31.894Z,6.30
2023-02-11T01:02:02.849Z,6.10
2023-02-11T01:04:33.805Z,6.30
2023-02-11T01:07:04.733Z,6.30
2023-02-11T01:09:38.849Z,6.30
2023-02-11T01:12:09.711Z,6.10
2023-02-11T01:14:40.634Z,6.30
2023-02-11T01:17:12.109Z,6.30
2023-02-11T01:19:43.151Z,6.30
2023-02-11T01:22:14.289Z,6.60
2023-02-11T01:24:45.290Z,6.40
2023-02-11T01:27:16.216Z,6.40
2023-02-11T01:29:47.102Z,6.50
2023-02-11T01:32:18.091Z,6.60
2023-02-11T01:34:50.120Z,6.70
2023-02-11T01:37:20.978Z,5.90
2023-02-11T01:39:52.233Z,5.50
2023-02-11T01:42:24.068Z,6.20
2023-02-11T01:44:57.532Z,6.10
2023-02-11T01:47:28.379Z,6.30
2023-02-11T01:50:01.756Z,6.50
2023-02-11T01:52:37.290Z,6.10
2023-02-11T01:55:31.502Z,6.10
2023-02-11T01:58:05.604Z,6.00
2023-02-11T02:00:39.020Z,6.10
2023-02-11T02:03:22.557Z,6.40
2023-02-11T02:06:28.716Z,6.50
2023-02-11T02:09:11.591Z,6.40
2023-02-11T02:11:42.564Z,6.50
2023-02-11T02:14:13.567Z,6.50
2023-02-11T02:16:45.522Z,6.50
2023-02-11T02:19:57.866Z,6.70
2023-02-11T02:22:49.586Z,6.70
2023-02-11T02:26:01.258Z,6.70
2023-02-11T02:28:44.261Z,6.70
2023-02-11T02:31:24.419Z,6.60
2023-02-11T02:34:09.322Z,6.70
2023-02-11T02:36:49.322Z,6.60
2023-02-11T02:39:32.694Z,6.40
2023-02-11T02:42:05.355Z,6.40
2023-02-11T02:44:36.282Z,6.30
2023-02-11T02:47:08.261Z,6.50
2023-02-11T02:49:39.136Z,6.40
2023-02-11T02:52:31.880Z,6.50
2023-02-11T02:55:12.278Z,6.60
2023-02-11T02:58:00.457Z,6.60
2023-02-11T03:01:12.799Z,6.60
2023-02-11T03:04:02.270Z,6.60
2023-02-11T03:06:51.917Z,6.70
2023-02-11T03:09:32.176Z,6.70
2023-02-11T03:12:04.206Z,6.80
2023-02-11T03:14:36.850Z,6.90
2023-02-11T03:17:10.144Z,6.80
2023-02-11T03:19:44.656Z,5.90
2023-02-11T03:22:28.375Z,6.30
2023-02-11T03:25:00.721Z,6.80
2023-02-11T03:27:41.838Z,6.10
2023-02-11T03:30:26.591Z,6.50
2023-02-11T03:33:52.623Z,6.90
2023-02-11T03:36:46.114Z,6.70
2023-02-11T03:39:24.803Z,6.80
2023-02-11T03:41:58.619Z,6.90
2023-02-11T03:44:45.575Z,7.00
2023-02-11T03:47:20.943Z,6.50
2023-02-11T03:49:53.654Z,6.30
2023-02-11T03:52:26.397Z,6.60
2023-02-11T03:55:00.964Z,6.70
2023-02-11T03:57:34.279Z,6.30
2023-02-11T04:00:06.670Z,6.60
2023-02-11T04:02:38.559Z,6.70
2023-02-11T04:05:13.279Z,6.60
2023-02-11T04:07:44.186Z,6.70
2023-02-11T04:10:15.450Z,6.70
2023-02-11T04:12:46.334Z,7.00
2023-02-11T04:15:17.871Z,6.90
2023-02-11T04:17:48.969Z,6.80
2023-02-11T04:20:19.966Z,6.90
2023-02-11T04:22:50.827Z,7.00
2023-02-11T04:25:21.708Z,7.00
2023-02-11T04:27:52.568Z,6.60
2023-02-11T04:30:23.526Z,6.90
2023-02-11T04:32:54.484Z,6.80
2023-02-11T04:35:25.688Z,6.80
2023-02-11T04:37:56.737Z,6.80
2023-02-11T04:40:27.711Z,6.80
2023-02-11T04:42:58.715Z,7.10
2023-02-11T04:45:29.590Z,6.80
2023-02-11T04:48:03.318Z,7.00
2023-02-11T04:50:34.249Z,6.90
2023-02-11T04:53:05.091Z,7.10
2023-02-11T04:55:36.605Z,7.00
2023-02-11T04:58:07.425Z,6.80
2023-02-11T05:00:38.331Z,7.30
2023-02-11T05:03:09.186Z,6.60
2023-02-11T05:05:42.406Z,7.00
2023-02-11T05:08:13.667Z,5.90
2023-02-11T05:10:48.102Z,6.70
2023-02-11T05:13:19.154Z,6.30
2023-02-11T05:15:50.648Z,6.70
2023-02-11T05:18:22.340Z,6.10
2023-02-11T05:20:53.217Z,6.40
2023-02-11T05:23:24.131Z,6.00
2023-02-11T05:25:55.000Z,4.90
2023-02-11T05:28:25.944Z,5.80
2023-02-11T05:30:57.127Z,6.10
2023-02-11T05:33:28.452Z,6.70
2023-02-11T05:36:06.001Z,6.40
2023-02-11T05:38:37.738Z,5.90
2023-02-11T05:41:09.854Z,5.50
2023-02-11T05:43:40.963Z,6.50
2023-02-11T05:46:11.908Z,6.40
2023-02-11T05:48:43.016Z,7.00
2023-02-11T05:51:13.864Z,7.40
2023-02-11T05:53:44.736Z,7.20
2023-02-11T05:56:15.659Z,7.30
2023-02-11T05:58:46.556Z,7.10
2023-02-11T06:01:17.491Z,7.20
2023-02-11T06:03:50.068Z,7.30
2023-02-11T06:06:21.047Z,6.50
2023-02-11T06:08:51.992Z,6.70
2023-02-11T06:11:22.969Z,6.70
2023-02-11T06:13:53.941Z,6.60
2023-02-11T06:16:24.982Z,7.30
2023-02-11T06:18:56.595Z,7.10
2023-02-11T06:21:42.473Z,7.30
2023-02-11T06:24:15.442Z,7.30
2023-02-11T06:26:47.209Z,7.20
2023-02-11T06:29:18.039Z,6.90
2023-02-11T06:31:49.030Z,7.20
2023-02-11T06:34:19.948Z,7.10
2023-02-11T06:36:50.843Z,7.30
2023-02-11T06:39:21.811Z,7.80
2023-02-11T06:41:52.705Z,6.80
2023-02-11T06:44:23.830Z,7.50
2023-02-11T06:46:54.810Z,7.40
2023-02-11T06:49:25.656Z,7.30
2023-02-11T06:51:56.605Z,7.70
2023-02-11T06:54:27.496Z,7.90
2023-02-11T06:56:58.431Z,7.50
2023-02-11T06:59:29.352Z,7.30
2023-02-11T07:02:00.260Z,7.60
2023-02-11T07:04:31.158Z,7.90
2023-02-11T07:07:02.092Z,7.30
2023-02-11T07:09:33.100Z,6.80
2023-02-11T07:12:04.486Z,7.10
2023-02-11T07:14:35.359Z,7.30
2023-02-11T07:17:06.506Z,7.20
2023-02-11T07:19:37.450Z,7.50
2023-02-11T07:22:08.584Z,7.30
2023-02-11T07:24:39.531Z,6.90
2023-02-11T07:27:10.452Z,7.50
2023-02-11T07:29:42.787Z,7.70
2023-02-11T07:32:14.472Z,7.90
2023-02-11T07:34:45.564Z,7.00
2023-02-11T07:37:16.532Z,7.70
2023-02-11T07:39:47.372Z,8.00
2023-02-11T07:42:18.297Z,7.80
2023-02-11T07:44:50.529Z,7.70
2023-02-11T07:47:21.733Z,7.70
2023-02-11T07:49:56.108Z,7.80
2023-02-11T07:52:31.013Z,7.60
2023-02-11T07:55:04.729Z,7.50
2023-02-11T07:57:36.237Z,7.10
2023-02-11T08:00:07.614Z,7.20
2023-02-11T08:02:38.498Z,7.50
2023-02-11T08:05:09.436Z,8.10
2023-02-11T08:07:40.303Z,8.10
2023-02-11T08:10:11.257Z,8.10
2023-02-11T08:12:42.095Z,8.10
2023-02-11T08:15:13.454Z,8.20
2023-02-11T08:17:44.324Z,8.40
2023-02-11T08:20:15.637Z,8.20
2023-02-11T08:22:46.574Z,8.60
2023-02-11T08:25:17.662Z,9.90
2023-02-11T08:27:48.506Z,10.10
2023-02-11T08:30:19.845Z,9.60
2023-02-11T08:32:51.118Z,9.80
2023-02-11T08:35:22.032Z,9.30
2023-02-11T08:37:53.298Z,9.60
2023-02-11T08:40:25.314Z,9.10
2023-02-11T08:42:56.242Z,9.40
2023-02-11T08:45:27.269Z,9.50
2023-02-11T08:47:58.168Z,9.50
2023-02-11T08:50:29.082Z,9.30
2023-02-11T08:53:00.095Z,9.40
2023-02-11T08:55:31.135Z,9.00
2023-02-11T08:58:02.012Z,9.20
2023-02-11T09:00:33.202Z,9.20
2023-02-11T09:03:04.280Z,9.00
2023-02-11T09:05:35.198Z,9.70
2023-02-11T09:08:06.192Z,9.70
2023-02-11T09:10:37.816Z,9.60
2023-02-11T09:13:09.999Z,8.60
2023-02-11T09:15:40.935Z,8.80
2023-02-11T09:18:11.777Z,9.60
2023-02-11T09:20:42.640Z,9.60
2023-02-11T09:23:13.797Z,9.50
2023-02-11T09:25:44.706Z,9.30
2023-02-11T09:28:15.954Z,9.90
2023-02-11T09:30:47.153Z,9.80
2023-02-11T09:33:18.049Z,8.90
2023-02-11T09:35:49.018Z,9.40
2023-02-11T09:38:19.900Z,10.10
2023-02-11T09:40:51.056Z,10.30
2023-02-11T09:43:27.502Z,9.90
2023-02-11T09:45:59.320Z,10.30
2023-02-11T09:48:41.858Z,10.20
2023-02-11T09:51:47.299Z,10.60
2023-02-11T09:54:37.549Z,10.80
2023-02-11T09:57:26.591Z,11.20
2023-02-11T09:59:59.135Z,10.80
2023-02-11T10:02:56.825Z,10.40
2023-02-11T10:05:48.291Z,11.30
2023-02-11T10:09:17.190Z,10.80
2023-02-11T10:12:03.573Z,11.60
2023-02-11T10:15:02.785Z,11.80
2023-02-11T10:17:42.585Z,11.80
2023-02-11T10:20:59.513Z,11.60
2023-02-11T10:23:37.168Z,12.20
2023-02-11T10:26:15.451Z,12.30
2023-02-11T10:28:51.125Z,12.20
2023-02-11T10:31:50.140Z,12.30
2023-02-11T10:34:20.987Z,12.30
2023-02-11T10:36:51.888Z,12.50
2023-02-11T10:39:26.732Z,12.50
2023-02-11T10:42:05.472Z,12.10
2023-02-11T10:44:49.445Z,12.80
2023-02-11T10:47:28.623Z,12.90
2023-02-11T10:50:03.704Z,13.10
2023-02-11T10:52:34.634Z,13.50
2023-02-11T10:55:18.300Z,13.60
2023-02-11T10:57:59.697Z,14.50
2023-02-11T11:00:37.198Z,14.10
2023-02-11T11:03:20.894Z,13.60
2023-02-11T11:06:04.986Z,13.90
2023-02-11T11:08:48.954Z,14.10
2023-02-11T11:11:23.147Z,15.00
2023-02-11T11:13:53.979Z,15.70
2023-02-11T11:16:36.300Z,15.20
2023-02-11T11:19:07.176Z,15.70
2023-02-11T11:21:47.068Z,15.00
2023-02-11T11:24:44.790Z,14.70
2023-02-11T11:27:24.551Z,15.40
2023-02-11T11:29:56.737Z,15.60
2023-02-11T11:32:33.077Z,15.50
2023-02-11T11:35:22.045Z,15.80
2023-02-11T11:38:01.983Z,15.50
2023-02-11T11:40:35.692Z,15.60
2023-02-11T11:43:23.138Z,15.80
2023-02-11T11:45:57.975Z,16.30
2023-02-11T11:48:37.156Z,16.20
2023-02-11T11:51:12.215Z,15.70
2023-02-11T11:54:12.532Z,16.10
2023-02-11T11:56:57.243Z,16.10
2023-02-11T11:59:30.478Z,15.60
2023-02-11T12:02:41.361Z,16.20
2023-02-11T12:05:17.484Z,16.50
2023-02-11T12:08:15.844Z,16.40
2023-02-11T12:11:24.049Z,16.60
2023-02-11T12:14:27.322Z,16.10
2023-02-11T12:17:42.764Z,16.00
2023-02-11T12:20:38.880Z,17.00
2023-02-11T12:23:37.462Z,17.30
2023-02-11T12:26:20.697Z,16.60
2023-02-11T12:29:34.226Z,17.00
2023-02-11T12:32:42.445Z,16.60
2023-02-11T12:35:27.580Z,17.00
2023-02-11T12:38:48.282Z,16.60
2023-02-11T12:42:03.282Z,16.60
2023-02-11T12:45:17.961Z,16.60
2023-02-11T12:48:26.961Z,16.70
2023-02-11T12:51:39.485Z,16.80
2023-02-11T12:54:18.480Z,16.10
2023-02-11T12:57:04.985Z,16.40
2023-02-11T12:59:39.044Z,16.20
2023-02-11T13:02:35.109Z,16.20
2023-02-11T13:05:32.448Z,16.30
2023-02-11T13:08:13.379Z,16.30
2023-02-11T13:10:51.402Z,16.40
2023-02-11T13:14:18.928Z,16.00
2023-02-11T13:16:51.771Z,15.70
2023-02-11T13:19:39.159Z,16.00
2023-02-11T13:22:47.974Z,15.90
2023-02-11T13:25:28.276Z,15.50
2023-02-11T13:28:50.285Z,15.70
2023-02-11T13:31:21.370Z,15.50
2023-02-11T13:33:53.237Z,15.90
2023-02-11T13:36:28.420Z,16.10
2023-02-11T13:39:01.765Z,16.30
2023-02-11T13:41:42.201Z,16.20
2023-02-11T13:44:15.492Z,16.60
2023-02-11T13:47:02.268Z,16.30
2023-02-11T13:49:40.982Z,16.50
2023-02-11T13:52:38.940Z,17.00
2023-02-11T13:55:21.491Z,16.80
2023-02-11T13:58:07.753Z,17.10
2023-02-11T14:00:38.732Z,17.20
2023-02-11T14:03:30.852Z,17.20
2023-02-11T14:06:29.356Z,17.00
2023-02-11T14:09:11.527Z,17.50
2023-02-11T14:11:50.219Z,17.40
2023-02-11T14:14:28.833Z,17.10
2023-02-11T14:16:59.981Z,17.20
2023-02-11T14:19:49.487Z,17.40
2023-02-11T14:22:31.801Z,16.90
2023-02-11T14:25:05.570Z,17.30
2023-02-11T14:27:41.436Z,17.20
2023-02-11T14:30:34.560Z,17.40
2023-02-11T14:33:52.273Z,17.00
2023-02-11T14:36:43.781Z,17.60
2023-02-11T14:39:25.490Z,17.60
2023-02-11T14:41:57.194Z,17.50
2023-02-11T14:44:31.861Z,16.70
2023-02-11T14:47:03.254Z,16.60
2023-02-11T14:49:39.315Z,17.50
2023-02-11T14:52:34.103Z,17.00
2023-02-11T14:55:23.742Z,16.40
2023-02-11T14:58:18.950Z,16.40
2023-02-11T15:01:03.340Z,16.00
2023-02-11T15:03:43.071Z,15.90
2023-02-11T15:06:23.754Z,16.40
2023-02-11T15:09:13.235Z,16.30
2023-02-11T15:11:47.969Z,15.70
2023-02-11T15:14:26.447Z,15.70
2023-02-11T15:17:03.773Z,15.90
2023-02-11T15:19:41.072Z,15.70
2023-02-11T15:22:27.406Z,14.90
2023-02-11T15:25:11.025Z,15.10
2023-02-11T15:27:54.035Z,14.60
2023-02-11T15:30:34.199Z,14.20
2023-02-11T15:33:06.815Z,14.90
2023-02-11T15:35:41.086Z,15.20
2023-02-11T15:38:13.862Z,15.20
2023-02-11T15:41:07.396Z,14.40
2023-02-11T15:43:52.952Z,14.90
2023-02-11T15:46:24.537Z,15.20
2023-02-11T15:48:55.818Z,16.20
2023-02-11T15:51:35.540Z,15.50
2023-02-11T15:54:22.638Z,15.30
2023-02-11T15:57:01.642Z,14.20
2023-02-11T15:59:52.355Z,14.60
2023-02-11T16:02:33.352Z,15.10
2023-02-11T16:05:08.662Z,15.10
2023-02-11T16:07:50.318Z,15.00
2023-02-11T16:10:35.309Z,14.50
2023-02-11T16:13:06.096Z,14.30
2023-02-11T16:16:05.720Z,15.00
2023-02-11T16:19:02.153Z,14.70
2023-02-11T16:21:45.353Z,15.10
2023-02-11T16:24:30.660Z,14.60
2023-02-11T16:27:14.977Z,14.80
2023-02-11T16:29:48.844Z,14.80
2023-02-11T16:32:23.786Z,14.60
2023-02-11T16:34:59.093Z,14.80
2023-02-11T16:37:30.016Z,14.50
2023-02-11T16:40:00.864Z,14.20
2023-02-11T16:42:31.725Z,14.50
2023-02-11T16:45:03.320Z,14.70
2023-02-11T16:47:35.703Z,14.70
2023-02-11T16:50:18.948Z,14.50
2023-02-11T16:52:50.172Z,14.60
2023-02-11T16:55:22.272Z,14.60
2023-02-11T16:57:53.198Z,14.80
2023-02-11T17:00:24.528Z,14.60
2023-02-11T17:02:55.717Z,14.60
2023-02-11T17:05:27.067Z,14.60
2023-02-11T17:07:58.152Z,14.60
2023-02-11T17:10:30.815Z,14.60
2023-02-11T17:13:01.770Z,14.40
2023-02-11T17:15:32.918Z,14.50
2023-02-11T17:18:04.121Z,14.50
2023-02-11T17:20:35.041Z,14.80
2023-02-11T17:23:05.955Z,14.70
2023-02-11T17:25:37.453Z,15.00
2023-02-11T17:28:12.162Z,14.90
2023-02-11T17:30:44.153Z,15.40
2023-02-11T17:33:15.083Z,15.40
2023-02-11T17:35:47.377Z,15.00
2023-02-11T17:38:18.319Z,14.90
2023-02-11T17:40:58.964Z,15.10
2023-02-11T17:43:29.902Z,15.30
2023-02-11T17:46:00.914Z,15.00
2023-02-11T17:48:31.859Z,14.70
2023-02-11T17:51:02.786Z,14.80
2023-02-11T17:53:33.677Z,14.90
2023-02-11T17:56:07.243Z,14.70
2023-02-11T17:58:38.152Z,14.70
2023-02-11T18:01:09.514Z,14.50
2023-02-11T18:03:40.398Z,14.50
2023-02-11T18:06:11.833Z,14.50
2023-02-11T18:08:43.129Z,14.30
2023-02-11T18:11:16.412Z,14.50
2023-02-11T18:13:52.681Z,14.60
2023-02-11T18:16:25.769Z,14.60
2023-02-11T18:18:58.549Z,14.50
2023-02-11T18:21:29.611Z,14.60
2023-02-11T18:24:06.045Z,14.60
2023-02-11T18:26:37.730Z,14.40
2023-02-11T18:29:08.802Z,14.30
2023-02-11T18:31:39.852Z,14.40
2023-02-11T18:34:12.694Z,14.40
2023-02-11T18:36:43.632Z,14.30
2023-02-11T18:39:14.599Z,14.30
2023-02-11T18:41:46.557Z,14.20
2023-02-11T18:44:22.102Z,14.30
2023-02-11T18:46:53.709Z,14.40
2023-02-11T18:49:24.643Z,14.30
2023-02-11T18:51:55.627Z,14.40
2023-02-11T18:54:26.586Z,14.30
2023-02-11T18:56:57.458Z,14.20
2023-02-11T18:59:28.572Z,14.40
2023-02-11T19:01:59.604Z,14.20
2023-02-11T19:04:30.560Z,14.30
2023-02-11T19:07:03.795Z,14.40
2023-02-11T19:09:34.976Z,14.20
2023-02-11T19:12:07.997Z,14.20
2023-02-11T19:14:39.163Z,14.30
2023-02-11T19:17:12.487Z,14.10
2023-02-11T19:19:43.420Z,14.10
2023-02-11T19:22:14.404Z,14.20
2023-02-11T19:24:46.442Z,14.20
2023-02-11T19:27:17.381Z,14.10
2023-02-11T19:29:48.548Z,14.20
2023-02-11T19:32:19.422Z,14.20
2023-02-11T19:34:51.687Z,14.20
2023-02-11T19:37:22.616Z,14.10
2023-02-11T19:39:53.444Z,14.20
2023-02-11T19:42:27.577Z,14.00
2023-02-11T19:44:58.627Z,14.10
2023-02-11T19:47:29.511Z,14.00
2023-02-11T19:50:00.427Z,14.10
2023-02-11T19:52:31.666Z,14.10
2023-02-11T19:55:02.519Z,14.10
2023-02-11T19:57:33.450Z,13.90
2023-02-11T20:00:06.365Z,14.10
2023-02-11T20:02:39.312Z,14.10
2023-02-11T20:05:10.204Z,14.10
2023-02-11T20:07:41.097Z,14.10
2023-02-11T20:10:12.110Z,14.10
2023-02-11T20:12:42.995Z,14.00
2023-02-11T20:15:13.926Z,13.90
2023-02-11T20:17:44.958Z,14.00
2023-02-11T20:20:15.975Z,14.00
2023-02-11T20:22:46.892Z,14.00
2023-02-11T20:25:17.956Z,14.10
2023-02-11T20:27:48.824Z,14.00
2023-02-11T20:30:21.563Z,14.00
2023-02-11T20:32:52.563Z,14.00
2023-02-11T20:35:23.723Z,14.00
2023-02-11T20:37:54.625Z,14.00
2023-02-11T20:40:25.495Z,14.10
2023-02-11T20:42:56.764Z,13.90
2023-02-11T20:45:27.597Z,14.10
2023-02-11T20:47:58.480Z,14.00
2023-02-11T20:50:29.733Z,14.00
2023-02-11T20:53:00.817Z,13.90
2023-02-11T20:55:32.240Z,13.90
2023-02-11T20:58:03.324Z,14.10
2023-02-11T21:00:37.103Z,13.90
2023-02-11T21:03:07.993Z,14.10
2023-02-11T21:05:38.907Z,14.10
2023-02-11T21:08:09.757Z,13.90
2023-02-11T21:10:40.682Z,13.80
2023-02-11T21:13:11.611Z,14.00
2023-02-11T21:15:42.506Z,14.00
2023-02-11T21:18:13.435Z,13.80
2023-02-11T21:20:44.301Z,13.80
2023-02-11T21:23:15.311Z,13.90
2023-02-11T21:25:46.397Z,13.70
2023-02-11T21:28:17.339Z,13.60
2023-02-11T21:30:51.189Z,13.70
2023-02-11T21:33:23.501Z,13.50
2023-02-11T21:36:03.617Z,13.80
2023-02-11T21:38:34.802Z,13.70
2023-02-11T21:41:06.802Z,13.70
2023-02-11T21:43:37.709Z,13.60
2023-02-11T21:46:15.349Z,13.70
2023-02-11T21:48:46.881Z,13.90
2023-02-11T21:51:22.357Z,13.80
2023-02-11T21:54:01.201Z,13.90
2023-02-11T21:56:33.888Z,13.90
2023-02-11T21:59:04.871Z,13.70
2023-02-11T22:01:36.897Z,13.80
2023-02-11T22:04:07.764Z,13.70
2023-02-11T22:06:39.028Z,13.60
2023-02-11T22:09:11.100Z,13.70
2023-02-11T22:11:42.008Z,13.60
2023-02-11T22:14:12.844Z,13.70
2023-02-11T22:16:45.920Z,13.60
2023-02-11T22:19:17.325Z,13.60
2023-02-11T22:21:48.239Z,13.70
2023-02-11T22:24:19.228Z,13.70
2023-02-11T22:26:50.088Z,13.70
2023-02-11T22:29:21.008Z,13.40
2023-02-11T22:31:51.924Z,13.50
2023-02-11T22:34:22.827Z,13.60
2023-02-11T22:36:53.746Z,13.60
2023-02-11T22:39:24.728Z,13.60
2023-02-11T22:41:56.672Z,13.80
2023-02-11T22:44:27.642Z,13.80
2023-02-11T22:46:58.532Z,13.60
2023-02-11T22:49:29.460Z,13.70
2023-02-11T22:52:00.388Z,13.70
2023-02-11T22:54:31.445Z,13.60
2023-02-11T22:57:02.375Z,13.50
2023-02-11T22:59:33.252Z,13.60
2023-02-11T23:02:04.266Z,13.50
2023-02-11T23:04:35.221Z,13.50
2023-02-11T23:07:06.103Z,13.40
2023-02-11T23:09:37.004Z,13.50
2023-02-11T23:12:07.938Z,13.50
2023-02-11T23:14:38.808Z,13.40
2023-02-11T23:17:09.684Z,13.40
2023-02-11T23:19:40.541Z,13.50
2023-02-11T23:22:11.460Z,13.20
2023-02-11T23:24:42.333Z,13.40
2023-02-11T23:27:13.580Z,13.60
2023-02-11T23:29:44.456Z,13.40
2023-02-11T23:32:15.336Z,13.50
2023-02-11T23:34:46.259Z,13.50
2023-02-11T23:37:17.149Z,13.50
2023-02-11T23:39:47.982Z,13.40
2023-02-11T23:42:18.863Z,13.60
2023-02-11T23:44:49.699Z,13.60
2023-02-11T23:47:20.602Z,13.70
2023-02-11T23:49:51.435Z,13.70
2023-02-11T23:52:22.333Z,13.70
2023-02-11T23:54:53.160Z,13.30
2023-02-11T23:57:24.081Z,13.50
2023-02-11T23:59:55.018Z,13.70
